createdAt,value
2019-05-26T00:00:12.359Z,8.20
2019-05-26T00:02:41.101Z,9.00
2019-05-26T00:05:09.867Z,8.80
2019-05-26T00:07:38.615Z,10.87
2019-05-26T00:10:07.501Z,8.93
2019-05-26T00:12:36.303Z,9.97
2019-05-26T00:15:05.169Z,9.30
2019-05-26T00:17:53.192Z,8.80
2019-05-26T00:20:21.944Z,8.40
2019-05-26T00:22:50.675Z,9.47
2019-05-26T00:25:19.416Z,9.10
2019-05-26T00:31:28.952Z,8.23
2019-05-26T00:33:57.707Z,8.80
2019-05-26T00:36:26.423Z,9.03
2019-05-26T00:38:55.155Z,8.60
2019-05-26T00:41:23.902Z,9.97
2019-05-26T00:43:52.661Z,8.70
2019-05-26T00:46:21.483Z,8.43
2019-05-26T00:48:50.314Z,9.60
2019-05-26T00:51:19.090Z,8.33
2019-05-26T00:53:47.842Z,8.60
2019-05-26T00:56:16.663Z,9.33
2019-05-26T00:58:45.389Z,10.90
2019-05-26T01:01:15.286Z,8.83
2019-05-26T01:03:44.029Z,8.70
2019-05-26T01:06:12.754Z,9.30
2019-05-26T01:08:41.483Z,9.13
2019-05-26T01:11:11.205Z,9.00
2019-05-26T01:13:39.941Z,11.13
2019-05-26T01:16:08.696Z,7.60
2019-05-26T01:18:37.516Z,10.27
2019-05-26T01:21:06.268Z,9.40
2019-05-26T01:23:35.006Z,10.80
2019-05-26T01:26:03.947Z,9.10
2019-05-26T01:28:32.674Z,9.23
2019-05-26T01:31:01.387Z,10.17
2019-05-26T01:33:30.119Z,10.10
2019-05-26T01:35:58.839Z,10.23
2019-05-26T01:38:27.591Z,9.57
2019-05-26T01:40:56.375Z,10.47
2019-05-26T01:43:25.103Z,10.43
2019-05-26T01:45:53.864Z,10.70
2019-05-26T01:48:23.127Z,9.70
2019-05-26T01:50:51.854Z,9.17
2019-05-26T01:53:20.568Z,9.90
2019-05-26T01:55:49.309Z,10.10
2019-05-26T01:58:18.076Z,10.57
2019-05-26T02:00:46.948Z,11.10
2019-05-26T02:03:15.784Z,10.73
2019-05-26T02:05:44.537Z,11.87
2019-05-26T02:08:15.938Z,10.60
2019-05-26T02:10:44.702Z,9.70
2019-05-26T02:13:13.423Z,10.87
2019-05-26T02:15:42.239Z,11.53
2019-05-26T02:18:11.116Z,11.53
2019-05-26T02:20:39.879Z,12.60
2019-05-26T02:23:08.631Z,11.03
2019-05-26T02:25:37.459Z,10.90
2019-05-26T02:28:06.175Z,11.00
2019-05-26T02:30:34.907Z,11.77
2019-05-26T02:33:03.689Z,12.67
2019-05-26T02:35:32.415Z,12.60
2019-05-26T02:38:01.152Z,12.03
2019-05-26T02:40:30.269Z,12.97
2019-05-26T02:46:40.032Z,12.63
2019-05-26T02:49:08.765Z,14.13
2019-05-26T02:51:37.557Z,15.60
2019-05-26T02:54:06.343Z,16.20
2019-05-26T02:56:35.152Z,16.57
2019-05-26T02:59:03.978Z,19.90
2019-05-26T03:01:32.729Z,18.70
2019-05-26T03:04:01.504Z,19.97
2019-05-26T03:06:31.212Z,19.83
2019-05-26T03:09:20.533Z,20.03
2019-05-26T03:11:30.476Z,21.83
2019-05-26T03:13:59.292Z,23.23
2019-05-26T03:16:28.057Z,23.80
2019-05-26T03:18:57.188Z,24.87
2019-05-26T03:21:26.038Z,24.67
2019-05-26T03:23:54.790Z,24.40
2019-05-26T03:26:23.667Z,26.00
2019-05-26T03:28:52.439Z,27.27
2019-05-26T03:31:21.184Z,27.37
2019-05-26T03:33:49.965Z,27.00
2019-05-26T03:36:18.688Z,27.83
2019-05-26T03:38:47.432Z,28.53
2019-05-26T03:41:16.233Z,29.83
2019-05-26T03:43:44.979Z,27.97
2019-05-26T03:46:19.627Z,30.20
2019-05-26T03:48:48.634Z,30.90
2019-05-26T03:51:17.456Z,29.73
2019-05-26T03:53:46.290Z,30.37
2019-05-26T03:56:15.057Z,35.40
2019-05-26T03:58:43.807Z,31.87
2019-05-26T04:01:12.619Z,34.07
2019-05-26T04:03:41.451Z,32.33
2019-05-26T04:06:10.194Z,32.80
2019-05-26T04:08:38.984Z,34.37
2019-05-26T04:11:07.896Z,33.47
2019-05-26T04:13:55.903Z,36.30
2019-05-26T04:16:24.827Z,34.67
2019-05-26T04:18:54.850Z,34.30
2019-05-26T04:21:23.666Z,34.33
2019-05-26T04:23:52.491Z,36.83
2019-05-26T04:26:21.238Z,34.40
2019-05-26T04:28:50.072Z,34.90
2019-05-26T04:31:18.915Z,35.90
2019-05-26T04:33:47.773Z,38.70
2019-05-26T04:36:16.553Z,36.70
2019-05-26T04:38:45.404Z,37.60
2019-05-26T04:41:34.541Z,38.53
2019-05-26T04:44:03.331Z,39.93
2019-05-26T04:46:32.125Z,40.97
2019-05-26T04:49:02.371Z,37.70
2019-05-26T04:51:31.195Z,41.00
2019-05-26T04:54:00.010Z,42.03
2019-05-26T04:56:28.785Z,41.23
2019-05-26T04:58:57.500Z,40.63
2019-05-26T05:01:26.265Z,39.23
2019-05-26T05:03:55.064Z,40.30
2019-05-26T05:06:23.947Z,42.47
2019-05-26T05:08:52.692Z,43.97
2019-05-26T05:11:21.444Z,45.20
2019-05-26T05:13:50.204Z,42.67
2019-05-26T05:16:18.930Z,44.33
2019-05-26T05:18:47.675Z,41.23
2019-05-26T05:21:16.394Z,42.57
2019-05-26T05:23:45.140Z,40.97
2019-05-26T05:26:13.900Z,42.47
2019-05-26T05:28:42.647Z,42.60
2019-05-26T05:31:13.573Z,42.30
2019-05-26T05:33:42.304Z,43.47
2019-05-26T05:36:14.171Z,41.87
2019-05-26T05:38:42.916Z,43.27
2019-05-26T05:41:11.649Z,42.53
2019-05-26T05:43:40.591Z,43.63
2019-05-26T05:46:09.339Z,46.43
2019-05-26T05:48:38.176Z,45.10
2019-05-26T05:51:06.947Z,51.23
2019-05-26T05:53:35.703Z,42.43
2019-05-26T05:56:04.519Z,42.60
2019-05-26T05:58:33.343Z,42.20
2019-05-26T06:01:02.099Z,41.23
2019-05-26T06:03:30.823Z,41.40
2019-05-26T06:05:59.567Z,41.23
2019-05-26T06:08:28.283Z,38.40
2019-05-26T06:10:57.017Z,38.93
2019-05-26T06:13:25.791Z,41.03
2019-05-26T06:15:54.595Z,38.00
2019-05-26T06:18:23.339Z,39.77
2019-05-26T06:20:52.095Z,38.23
2019-05-26T06:23:20.816Z,39.67
2019-05-26T06:25:49.557Z,37.67
2019-05-26T06:28:18.328Z,37.27
2019-05-26T06:30:47.052Z,34.70
2019-05-26T06:33:15.770Z,34.90
2019-05-26T06:35:44.520Z,34.67
2019-05-26T06:38:13.248Z,36.60
2019-05-26T06:40:45.327Z,35.80
2019-05-26T06:43:14.093Z,35.27
2019-05-26T06:45:42.842Z,33.27
2019-05-26T06:48:11.664Z,36.53
2019-05-26T06:50:40.484Z,32.77
2019-05-26T06:53:09.231Z,36.07
2019-05-26T06:55:42.187Z,36.40
2019-05-26T06:58:15.519Z,34.53
2019-05-26T07:00:44.418Z,34.07
2019-05-26T07:03:13.129Z,38.30
2019-05-26T07:05:41.902Z,32.03
2019-05-26T07:08:10.632Z,34.27
2019-05-26T07:10:39.515Z,34.80
2019-05-26T07:13:08.269Z,37.40
2019-05-26T07:15:37.143Z,32.90
2019-05-26T07:18:05.880Z,35.07
2019-05-26T07:20:35.119Z,32.60
2019-05-26T07:23:04.703Z,30.33
2019-05-26T07:25:36.464Z,32.67
2019-05-26T07:28:05.274Z,32.30
2019-05-26T07:30:34.080Z,32.93
2019-05-26T07:33:02.984Z,29.87
2019-05-26T07:35:33.247Z,31.87
2019-05-26T07:38:02.095Z,32.17
2019-05-26T07:40:30.794Z,31.63
2019-05-26T07:42:59.574Z,33.90
2019-05-26T07:45:28.375Z,29.90
2019-05-26T07:47:57.131Z,31.83
2019-05-26T07:50:25.906Z,28.17
2019-05-26T07:52:54.673Z,32.47
2019-05-26T07:55:23.469Z,30.43
2019-05-26T07:57:52.290Z,28.73
2019-05-26T08:00:21.050Z,28.60
2019-05-26T08:02:49.781Z,27.80
2019-05-26T08:05:18.518Z,28.37
2019-05-26T08:08:12.615Z,28.00
2019-05-26T08:10:37.186Z,30.33
2019-05-26T08:13:05.891Z,27.73
2019-05-26T08:15:34.644Z,26.73
2019-05-26T08:18:03.392Z,28.77
2019-05-26T08:20:32.191Z,25.83
2019-05-26T08:23:00.970Z,26.10
2019-05-26T08:25:29.687Z,27.57
2019-05-26T08:27:58.441Z,27.07
2019-05-26T08:30:27.372Z,26.23
2019-05-26T08:32:56.273Z,27.17
2019-05-26T08:35:25.017Z,23.63
2019-05-26T08:37:53.790Z,25.27
2019-05-26T08:40:22.542Z,23.67
2019-05-26T08:42:51.465Z,23.73
2019-05-26T08:45:21.698Z,25.37
2019-05-26T08:47:50.878Z,22.30
2019-05-26T08:50:19.751Z,23.23
2019-05-26T08:52:48.606Z,22.80
2019-05-26T08:55:17.425Z,22.43
2019-05-26T08:57:46.167Z,22.73
2019-05-26T09:00:16.511Z,25.03
2019-05-26T09:02:47.635Z,23.03
2019-05-26T09:05:16.463Z,22.77
2019-05-26T09:07:45.211Z,23.53
2019-05-26T09:10:13.966Z,21.57
2019-05-26T09:12:42.711Z,23.60
2019-05-26T09:15:12.335Z,25.00
2019-05-26T09:17:41.123Z,25.83
2019-05-26T09:20:11.579Z,23.17
2019-05-26T09:22:40.525Z,25.60
2019-05-26T09:25:09.284Z,24.03
2019-05-26T09:27:38.051Z,23.83
2019-05-26T09:30:06.839Z,22.83
2019-05-26T09:32:35.652Z,24.17
2019-05-26T09:35:04.937Z,22.40
2019-05-26T09:37:33.758Z,23.33
2019-05-26T09:40:02.516Z,23.23
2019-05-26T09:42:31.275Z,23.77
2019-05-26T09:45:00.000Z,21.97
2019-05-26T09:47:28.913Z,23.93
2019-05-26T09:49:57.646Z,21.70
2019-05-26T09:52:26.387Z,23.73
2019-05-26T09:54:55.178Z,21.73
2019-05-26T09:57:23.912Z,22.03
2019-05-26T09:59:52.654Z,20.27
2019-05-26T10:02:21.430Z,20.27
2019-05-26T10:04:50.174Z,23.67
2019-05-26T10:07:18.902Z,23.27
2019-05-26T10:09:47.634Z,21.23
2019-05-26T10:12:16.444Z,21.40
2019-05-26T10:14:47.767Z,19.47
2019-05-26T10:17:15.794Z,21.80
2019-05-26T10:19:44.545Z,21.63
2019-05-26T10:22:13.283Z,21.27
2019-05-26T10:24:42.083Z,21.73
2019-05-26T10:27:12.064Z,21.40
2019-05-26T10:29:40.863Z,22.23
2019-05-26T10:32:09.595Z,21.50
2019-05-26T10:34:38.344Z,25.70
2019-05-26T10:37:07.103Z,22.60
2019-05-26T10:39:35.846Z,22.10
2019-05-26T10:42:04.660Z,22.73
2019-05-26T10:44:33.439Z,22.47
2019-05-26T10:47:02.195Z,25.70
2019-05-26T10:49:30.935Z,22.67
2019-05-26T10:51:59.795Z,23.07
2019-05-26T10:54:28.535Z,22.40
2019-05-26T10:56:57.415Z,16.93
2019-05-26T10:59:26.282Z,21.23
2019-05-26T11:01:55.035Z,20.23
2019-05-26T11:04:23.842Z,19.63
2019-05-26T11:06:52.599Z,21.17
2019-05-26T11:09:21.323Z,21.20
2019-05-26T11:11:50.060Z,19.87
2019-05-26T11:14:18.895Z,19.37
2019-05-26T11:16:47.626Z,17.07
2019-05-26T11:19:16.371Z,20.13
2019-05-26T11:21:45.132Z,21.23
2019-05-26T11:24:13.953Z,15.40
2019-05-26T11:26:42.668Z,17.47
2019-05-26T11:29:11.443Z,19.93
2019-05-26T11:31:40.187Z,20.50
2019-05-26T11:34:08.996Z,18.20
2019-05-26T11:36:37.759Z,17.27
2019-05-26T11:39:07.489Z,18.80
2019-05-26T11:41:36.292Z,20.27
2019-05-26T11:44:17.058Z,17.53
2019-05-26T11:46:35.591Z,19.53
2019-05-26T11:49:04.608Z,18.57
2019-05-26T11:51:33.335Z,20.37
2019-05-26T11:54:04.074Z,19.23
2019-05-26T11:56:32.615Z,18.70
2019-05-26T11:59:01.344Z,18.73
2019-05-26T12:01:30.381Z,18.03
2019-05-26T12:03:59.158Z,20.70
2019-05-26T12:06:27.926Z,18.37
2019-05-26T12:08:56.705Z,16.80
2019-05-26T12:11:25.530Z,17.90
2019-05-26T12:13:54.317Z,15.30
2019-05-26T12:16:23.073Z,19.90
2019-05-26T12:18:51.845Z,17.27
2019-05-26T12:21:20.678Z,17.50
2019-05-26T12:23:49.472Z,17.53
2019-05-26T12:26:18.202Z,17.53
2019-05-26T12:28:46.982Z,17.67
2019-05-26T12:31:15.700Z,17.10
2019-05-26T12:33:44.431Z,18.93
2019-05-26T12:36:13.187Z,15.17
2019-05-26T12:38:50.961Z,19.37
2019-05-26T12:41:21.259Z,19.40
2019-05-26T12:43:49.999Z,18.83
2019-05-26T12:46:18.747Z,17.17
2019-05-26T12:48:47.528Z,18.73
2019-05-26T12:51:16.352Z,17.13
2019-05-26T12:53:45.087Z,15.70
2019-05-26T12:56:13.846Z,16.07
2019-05-26T12:58:42.615Z,14.30
2019-05-26T13:01:11.377Z,8.37
2019-05-26T13:03:40.094Z,4.00
2019-05-26T13:06:08.840Z,7.27
2019-05-26T13:08:37.669Z,6.77
2019-05-26T13:11:06.382Z,6.03
2019-05-26T13:13:35.207Z,7.23
2019-05-26T13:16:03.950Z,5.23
2019-05-26T13:18:32.680Z,4.10
2019-05-26T13:21:01.483Z,6.03
2019-05-26T13:23:30.236Z,4.40
2019-05-26T13:25:58.967Z,5.33
2019-05-26T13:28:27.720Z,3.77
2019-05-26T13:30:56.873Z,3.50
2019-05-26T13:33:25.596Z,2.93
2019-05-26T13:35:54.363Z,2.93
2019-05-26T13:38:23.136Z,5.63
2019-05-26T13:40:51.883Z,5.40
2019-05-26T13:43:20.630Z,6.57
2019-05-26T13:45:49.464Z,4.53
2019-05-26T13:48:18.222Z,4.97
2019-05-26T13:50:46.971Z,6.07
2019-05-26T13:53:15.870Z,3.30
2019-05-26T13:55:44.620Z,3.40
2019-05-26T13:58:13.343Z,7.30
2019-05-26T14:00:42.124Z,8.00
2019-05-26T14:03:10.924Z,7.17
2019-05-26T14:05:39.675Z,10.13
2019-05-26T14:08:08.441Z,4.70
2019-05-26T14:10:38.671Z,6.73
2019-05-26T14:13:08.156Z,6.27
2019-05-26T14:15:38.970Z,6.60
2019-05-26T14:18:07.381Z,5.50
2019-05-26T14:20:37.701Z,5.57
2019-05-26T14:23:07.523Z,2.70
2019-05-26T14:25:36.235Z,3.97
2019-05-26T14:28:05.414Z,3.57
2019-05-26T14:30:53.423Z,5.93
2019-05-26T14:33:22.173Z,3.50
2019-05-26T14:35:50.910Z,4.10
2019-05-26T14:38:19.667Z,3.83
2019-05-26T14:40:48.410Z,7.03
2019-05-26T14:43:17.136Z,5.30
2019-05-26T14:45:53.409Z,2.20
2019-05-26T14:48:16.380Z,3.33
2019-05-26T14:50:45.099Z,9.37
2019-05-26T14:53:13.907Z,5.80
2019-05-26T14:55:42.841Z,5.57
2019-05-26T14:58:16.217Z,9.97
2019-05-26T15:00:42.125Z,3.43
2019-05-26T15:03:10.875Z,3.97
2019-05-26T15:05:39.619Z,3.60
2019-05-26T15:08:08.362Z,3.17
2019-05-26T15:10:37.081Z,3.63
2019-05-26T15:13:05.969Z,3.80
2019-05-26T15:15:35.242Z,6.67
2019-05-26T15:18:04.124Z,4.60
2019-05-26T15:20:32.853Z,4.50
2019-05-26T15:23:01.650Z,6.13
2019-05-26T15:25:30.448Z,4.93
2019-05-26T15:27:59.194Z,4.80
2019-05-26T15:30:27.954Z,7.23
2019-05-26T15:32:56.988Z,5.80
2019-05-26T15:35:25.829Z,10.13
2019-05-26T15:37:54.593Z,7.77
2019-05-26T15:40:23.317Z,7.37
2019-05-26T15:42:52.081Z,5.17
2019-05-26T15:45:20.856Z,6.80
2019-05-26T15:47:49.666Z,5.40
2019-05-26T15:50:18.402Z,5.57
2019-05-26T15:52:47.210Z,5.03
2019-05-26T15:55:15.915Z,5.97
2019-05-26T15:57:44.673Z,5.43
2019-05-26T16:00:13.515Z,4.80
2019-05-26T16:02:42.347Z,5.07
2019-05-26T16:05:11.124Z,7.73
2019-05-26T16:07:39.864Z,4.13
2019-05-26T16:10:08.715Z,5.03
2019-05-26T16:12:37.508Z,3.63
2019-05-26T16:15:06.392Z,4.70
2019-05-26T16:17:38.427Z,3.83
2019-05-26T16:20:06.089Z,5.50
2019-05-26T16:22:34.800Z,3.27
2019-05-26T16:25:07.092Z,5.03
2019-05-26T16:27:36.042Z,3.67
2019-05-26T16:30:05.519Z,4.23
2019-05-26T16:32:34.295Z,8.20
2019-05-26T16:35:03.164Z,3.97
2019-05-26T16:37:31.902Z,4.60
2019-05-26T16:40:00.915Z,9.87
2019-05-26T16:42:29.679Z,8.70
2019-05-26T16:44:58.434Z,10.47
2019-05-26T16:47:27.230Z,5.20
2019-05-26T16:49:56.049Z,7.20
2019-05-26T16:52:24.804Z,5.60
2019-05-26T16:54:53.526Z,7.57
2019-05-26T16:57:22.256Z,7.90
2019-05-26T16:59:51.054Z,6.53
2019-05-26T17:02:19.791Z,8.50
2019-05-26T17:04:48.525Z,13.60
2019-05-26T17:07:17.262Z,5.60
2019-05-26T17:09:46.004Z,7.40
2019-05-26T17:12:14.817Z,8.23
2019-05-26T17:14:43.548Z,13.60
2019-05-26T17:17:15.186Z,5.73
2019-05-26T17:19:42.739Z,8.57
2019-05-26T17:22:11.562Z,6.57
2019-05-26T17:24:40.367Z,4.73
2019-05-26T17:27:10.323Z,5.57
2019-05-26T17:29:39.115Z,5.13
2019-05-26T17:32:07.859Z,5.43
2019-05-26T17:34:36.629Z,5.73
2019-05-26T17:37:06.947Z,6.53
2019-05-26T17:39:35.731Z,5.50
2019-05-26T17:42:04.515Z,7.60
2019-05-26T17:44:33.317Z,4.20
2019-05-26T17:47:02.109Z,5.73
2019-05-26T17:49:30.924Z,6.70
2019-05-26T17:51:59.682Z,14.60
2019-05-26T17:54:28.436Z,7.53
2019-05-26T17:56:57.170Z,7.03
2019-05-26T17:59:26.003Z,4.37
2019-05-26T18:01:54.735Z,7.73
2019-05-26T18:04:23.487Z,5.67
2019-05-26T18:06:52.256Z,4.10
2019-05-26T18:09:21.047Z,5.60
2019-05-26T18:11:49.790Z,4.23
2019-05-26T18:14:18.636Z,4.23
2019-05-26T18:16:47.366Z,6.23
2019-05-26T18:19:16.105Z,7.37
2019-05-26T18:21:44.898Z,7.70
2019-05-26T18:24:13.702Z,6.93
2019-05-26T18:26:42.602Z,5.43
2019-05-26T18:29:11.418Z,4.90
2019-05-26T18:31:40.180Z,4.63
2019-05-26T18:34:08.973Z,3.70
2019-05-26T18:36:37.831Z,4.07
2019-05-26T18:39:08.158Z,3.90
2019-05-26T18:41:36.896Z,3.63
2019-05-26T18:44:05.659Z,3.57
2019-05-26T18:46:34.403Z,3.33
2019-05-26T18:49:03.187Z,2.97
2019-05-26T18:51:31.997Z,3.37
2019-05-26T18:54:00.735Z,5.57
2019-05-26T18:56:29.467Z,6.13
2019-05-26T18:58:58.208Z,4.70
2019-05-26T19:01:26.957Z,4.30
2019-05-26T19:03:55.780Z,2.60
2019-05-26T19:06:24.567Z,2.87
2019-05-26T19:08:53.307Z,3.33
2019-05-26T19:11:22.082Z,3.20
2019-05-26T19:13:50.906Z,3.07
2019-05-26T19:16:19.633Z,3.27
2019-05-26T19:18:48.387Z,4.73
2019-05-26T19:21:17.188Z,3.03
2019-05-26T19:23:45.998Z,3.27
2019-05-26T19:26:14.711Z,3.83
2019-05-26T19:28:43.487Z,7.77
2019-05-26T19:31:12.207Z,2.73
2019-05-26T19:33:40.920Z,2.50
2019-05-26T19:36:09.941Z,1.93
2019-05-26T19:38:38.807Z,1.77
2019-05-26T19:41:07.567Z,2.43
2019-05-26T19:43:36.345Z,3.37
2019-05-26T19:46:05.199Z,1.97
2019-05-26T19:48:36.977Z,1.97
2019-05-26T19:51:04.395Z,2.50
2019-05-26T19:53:33.139Z,3.33
2019-05-26T19:56:02.002Z,4.07
2019-05-26T20:02:18.308Z,6.87
2019-05-26T20:04:42.301Z,7.73
2019-05-26T20:07:11.019Z,6.03
2019-05-26T20:09:39.860Z,7.80
2019-05-26T20:12:08.765Z,9.87
2019-05-26T20:14:37.559Z,4.73
2019-05-26T20:17:06.292Z,8.43
2019-05-26T20:19:35.031Z,8.53
2019-05-26T20:22:03.931Z,3.60
2019-05-26T20:24:32.701Z,5.37
2019-05-26T20:27:01.480Z,6.13
2019-05-26T20:29:30.222Z,3.43
2019-05-26T20:31:59.066Z,4.97
2019-05-26T20:34:27.882Z,3.43
2019-05-26T20:36:56.635Z,5.77
2019-05-26T20:39:25.416Z,5.73
2019-05-26T20:41:54.193Z,5.43
2019-05-26T20:44:22.905Z,5.70
2019-05-26T20:46:51.720Z,3.80
2019-05-26T20:49:20.456Z,5.80
2019-05-26T20:51:49.171Z,4.63
2019-05-26T20:54:18.009Z,5.23
2019-05-26T20:56:46.735Z,4.50
2019-05-26T20:59:15.452Z,3.37
2019-05-26T21:01:44.219Z,3.97
2019-05-26T21:04:12.959Z,4.17
2019-05-26T21:06:41.692Z,5.80
2019-05-26T21:09:11.459Z,7.37
2019-05-26T21:11:40.465Z,4.83
2019-05-26T21:14:09.207Z,7.63
2019-05-26T21:16:37.988Z,8.53
2019-05-26T21:19:06.743Z,4.97
2019-05-26T21:21:35.476Z,7.90
2019-05-26T21:24:04.236Z,7.60
2019-05-26T21:26:32.967Z,5.73
2019-05-26T21:29:01.700Z,8.27
2019-05-26T21:31:30.467Z,6.53
2019-05-26T21:33:59.180Z,6.33
2019-05-26T21:36:27.947Z,9.00
2019-05-26T21:38:56.759Z,7.00
2019-05-26T21:41:25.489Z,6.73
2019-05-26T21:43:54.211Z,9.67
2019-05-26T21:46:22.968Z,9.17
2019-05-26T21:48:51.704Z,8.47
2019-05-26T21:51:39.757Z,6.97
2019-05-26T21:54:08.579Z,10.97
2019-05-26T21:56:37.312Z,8.37
2019-05-26T21:59:06.067Z,7.60
2019-05-26T22:01:34.880Z,8.83
2019-05-26T22:04:03.652Z,8.20
2019-05-26T22:06:32.469Z,7.23
2019-05-26T22:09:01.227Z,7.77
2019-05-26T22:11:29.955Z,7.47
2019-05-26T22:13:58.715Z,7.60
2019-05-26T22:16:27.437Z,6.63
2019-05-26T22:18:59.493Z,7.47
2019-05-26T22:21:26.715Z,8.50
2019-05-26T22:23:55.438Z,5.93
2019-05-26T22:26:24.217Z,7.00
2019-05-26T22:28:52.934Z,6.60
2019-05-26T22:31:21.685Z,6.73
2019-05-26T22:33:50.445Z,7.10
2019-05-26T22:36:19.183Z,11.37
2019-05-26T22:38:48.393Z,5.67
2019-05-26T22:41:17.274Z,6.57
2019-05-26T22:43:45.998Z,7.10
2019-05-26T22:46:14.727Z,7.00
2019-05-26T22:48:43.499Z,6.17
2019-05-26T22:51:12.231Z,6.70
2019-05-26T22:53:41.014Z,7.03
2019-05-26T22:56:09.772Z,5.53
2019-05-26T22:58:38.492Z,6.47
2019-05-26T23:01:07.215Z,7.07
2019-05-26T23:03:35.951Z,6.13
2019-05-26T23:06:04.674Z,5.33
2019-05-26T23:08:33.411Z,4.70
2019-05-26T23:11:02.155Z,5.13
2019-05-26T23:13:30.914Z,5.33
2019-05-26T23:15:59.666Z,6.07
2019-05-26T23:18:28.476Z,5.60
2019-05-26T23:20:57.212Z,5.53
2019-05-26T23:23:25.958Z,4.93
2019-05-26T23:25:54.723Z,4.33
2019-05-26T23:28:23.442Z,3.30
2019-05-26T23:30:52.269Z,3.33
2019-05-26T23:33:21.178Z,2.70
2019-05-26T23:35:49.976Z,3.10
2019-05-26T23:38:18.708Z,3.37
2019-05-26T23:40:47.551Z,3.03
2019-05-26T23:49:41.567Z,3.53
2019-05-26T23:52:10.288Z,2.93
2019-05-26T23:54:39.071Z,3.27
2019-05-26T23:57:07.799Z,3.53
2019-05-26T23:59:36.529Z,4.57
